createdAt,value
2019-04-06T00:02:19.316Z,43.37
2019-04-06T00:05:26.288Z,41.77
2019-04-06T00:11:40.573Z,44.23
2019-04-06T00:14:47.595Z,41.50
2019-04-06T00:17:54.663Z,43.57
2019-04-06T00:21:02.265Z,41.33
2019-04-06T00:24:09.292Z,43.93
2019-04-06T00:27:16.328Z,45.93
2019-04-06T00:30:24.554Z,44.80
2019-04-06T00:33:33.406Z,43.13
2019-04-06T00:36:41.346Z,44.40
2019-04-06T00:39:48.850Z,45.80
2019-04-06T00:42:55.875Z,46.27
2019-04-06T00:46:02.945Z,46.07
2019-04-06T00:49:10.121Z,47.40
2019-04-06T00:52:17.288Z,47.13
2019-04-06T00:55:24.402Z,46.03
2019-04-06T00:58:32.600Z,48.30
2019-04-06T01:01:40.253Z,46.10
2019-04-06T01:04:47.721Z,46.60
2019-04-06T01:07:56.029Z,46.43
2019-04-06T01:11:03.568Z,47.03
2019-04-06T01:14:11.177Z,46.67
2019-04-06T01:17:18.683Z,46.57
2019-04-06T01:20:26.303Z,48.17
2019-04-06T01:26:40.292Z,47.20
2019-04-06T01:29:47.517Z,46.87
2019-04-06T01:32:55.295Z,47.73
2019-04-06T01:36:02.390Z,48.77
2019-04-06T01:39:09.510Z,46.10
2019-04-06T01:42:16.807Z,46.20
2019-04-06T01:45:24.380Z,47.60
2019-04-06T01:48:31.831Z,47.47
2019-04-06T01:51:39.348Z,47.70
2019-04-06T01:54:46.828Z,48.00
2019-04-06T01:57:54.461Z,47.70
2019-04-06T02:01:16.155Z,46.33
2019-04-06T02:04:23.397Z,46.43
2019-04-06T02:10:38.962Z,47.33
2019-04-06T02:13:45.977Z,47.57
2019-04-06T02:16:53.310Z,45.27
2019-04-06T02:20:00.354Z,47.47
2019-04-06T02:26:14.265Z,45.47
2019-04-06T02:29:21.304Z,44.47
2019-04-06T02:32:30.342Z,46.37
2019-04-06T02:35:48.686Z,45.10
2019-04-06T02:39:00.303Z,43.60
2019-04-06T02:42:16.490Z,44.97
2019-04-06T02:45:23.841Z,44.77
2019-04-06T02:48:30.994Z,45.93
2019-04-06T02:51:38.470Z,42.63
2019-04-06T02:54:45.512Z,42.97
2019-04-06T02:57:52.682Z,43.30
2019-04-06T03:01:00.916Z,45.43
2019-04-06T03:04:08.678Z,44.83
2019-04-06T03:07:15.740Z,44.80
2019-04-06T03:13:32.266Z,43.03
2019-04-06T03:19:46.662Z,44.23
2019-04-06T03:22:55.758Z,42.27
2019-04-06T03:26:03.359Z,43.00
2019-04-06T03:29:10.554Z,43.47
2019-04-06T03:32:17.971Z,44.27
2019-04-06T03:35:25.380Z,41.97
2019-04-06T03:38:32.626Z,41.03
2019-04-06T03:41:40.725Z,41.57
2019-04-06T03:44:47.920Z,41.50
2019-04-06T03:47:55.105Z,40.13
2019-04-06T03:51:03.458Z,40.57
2019-04-06T03:54:10.667Z,40.87
2019-04-06T03:57:17.841Z,38.50
2019-04-06T04:00:25.637Z,40.47
2019-04-06T04:03:33.305Z,38.87
2019-04-06T04:09:47.465Z,37.37
2019-04-06T04:16:00.963Z,38.87
2019-04-06T04:19:08.268Z,38.13
2019-04-06T04:22:16.309Z,38.17
2019-04-06T04:28:30.818Z,36.13
2019-04-06T04:31:38.321Z,37.00
2019-04-06T04:37:53.637Z,36.07
2019-04-06T04:41:01.347Z,37.80
2019-04-06T04:44:08.634Z,36.33
2019-04-06T04:47:15.904Z,33.73
2019-04-06T04:50:23.354Z,34.43
2019-04-06T04:53:31.741Z,34.07
2019-04-06T04:56:39.045Z,33.40
2019-04-06T04:59:48.522Z,33.60
2019-04-06T05:02:55.827Z,30.93
2019-04-06T05:06:03.316Z,32.10
2019-04-06T05:09:10.945Z,31.90
2019-04-06T05:12:18.624Z,31.13
2019-04-06T05:15:57.944Z,31.90
2019-04-06T05:19:06.163Z,28.53
2019-04-06T05:22:13.436Z,31.97
2019-04-06T05:25:20.943Z,32.30
2019-04-06T05:28:28.739Z,32.20
2019-04-06T05:31:36.656Z,33.33
2019-04-06T05:34:44.324Z,31.33
2019-04-06T05:37:51.721Z,33.20
2019-04-06T05:41:00.962Z,31.80
2019-04-06T05:44:08.773Z,30.47
2019-04-06T05:47:16.251Z,32.30
2019-04-06T05:50:24.947Z,30.53
2019-04-06T05:53:32.286Z,32.20
2019-04-06T05:56:39.266Z,30.87
2019-04-06T05:59:46.941Z,32.23
2019-04-06T06:02:54.361Z,29.47
2019-04-06T06:06:02.534Z,31.93
2019-04-06T06:09:11.719Z,31.00
2019-04-06T06:12:20.334Z,32.47
2019-04-06T06:15:28.404Z,30.20
2019-04-06T06:18:36.998Z,32.00
2019-04-06T06:21:44.269Z,30.00
2019-04-06T06:24:51.686Z,28.20
2019-04-06T06:27:59.213Z,27.60
2019-04-06T06:31:06.904Z,26.77
2019-04-06T06:34:14.335Z,27.77
2019-04-06T06:37:22.442Z,26.60
2019-04-06T06:40:29.739Z,26.90
2019-04-06T06:43:37.572Z,28.30
2019-04-06T06:46:44.971Z,28.40
2019-04-06T06:52:59.702Z,25.50
2019-04-06T06:56:06.993Z,25.57
2019-04-06T06:59:14.518Z,25.67
2019-04-06T07:02:22.332Z,25.00
2019-04-06T07:05:29.719Z,24.43
2019-04-06T07:12:00.356Z,23.10
2019-04-06T07:18:17.425Z,23.13
2019-04-06T07:21:25.598Z,21.90
2019-04-06T07:24:33.022Z,20.93
2019-04-06T07:27:40.713Z,22.13
2019-04-06T07:30:47.640Z,22.87
2019-04-06T07:33:55.107Z,21.73
2019-04-06T07:37:02.476Z,23.03
2019-04-06T07:40:11.346Z,22.87
2019-04-06T07:46:25.331Z,19.93
2019-04-06T07:49:33.357Z,19.60
2019-04-06T07:52:41.007Z,17.87
2019-04-06T07:55:48.290Z,19.07
2019-04-06T07:58:57.778Z,17.77
2019-04-06T08:02:05.538Z,19.80
2019-04-06T08:05:13.008Z,19.33
2019-04-06T08:08:20.455Z,19.03
2019-04-06T08:11:27.608Z,17.43
2019-04-06T08:14:34.719Z,15.33
2019-04-06T08:17:42.359Z,14.33
2019-04-06T08:20:49.883Z,12.67
2019-04-06T08:23:57.304Z,12.27
2019-04-06T08:30:11.497Z,11.57
2019-04-06T08:33:18.683Z,12.67
2019-04-06T08:36:26.254Z,12.40
2019-04-06T08:39:34.050Z,11.10
2019-04-06T08:42:42.160Z,12.03
2019-04-06T08:48:57.516Z,11.53
2019-04-06T08:52:04.936Z,11.33
2019-04-06T08:55:15.285Z,12.10
2019-04-06T08:58:22.859Z,12.10
2019-04-06T09:01:31.324Z,12.17
2019-04-06T09:04:38.903Z,11.67
2019-04-06T09:07:46.270Z,11.03
2019-04-06T09:10:53.773Z,11.63
2019-04-06T09:14:00.989Z,11.00
2019-04-06T09:17:08.403Z,10.87
2019-04-06T09:20:17.339Z,10.03
2019-04-06T09:26:31.513Z,6.20
2019-04-06T09:29:39.679Z,9.30
2019-04-06T09:32:47.975Z,8.60
2019-04-06T09:35:55.516Z,8.90
2019-04-06T09:39:03.071Z,8.47
2019-04-06T09:42:11.306Z,8.67
2019-04-06T09:45:37.549Z,7.40
2019-04-06T09:48:59.287Z,8.67
2019-04-06T09:52:08.323Z,7.80
2019-04-06T09:55:27.710Z,8.70
2019-04-06T09:58:37.286Z,7.97
2019-04-06T10:02:02.357Z,8.07
2019-04-06T10:05:20.821Z,7.50
2019-04-06T10:08:41.073Z,8.47
2019-04-06T10:11:56.500Z,9.43
2019-04-06T10:15:22.386Z,8.53
2019-04-06T10:18:34.767Z,7.87
2019-04-06T10:21:49.075Z,8.43
2019-04-06T10:25:05.109Z,8.10
2019-04-06T10:28:20.727Z,8.80
2019-04-06T10:31:29.692Z,7.80
2019-04-06T10:34:41.961Z,8.65
2019-04-06T10:37:56.903Z,9.05
2019-04-06T10:41:18.345Z,8.07
2019-04-06T10:44:35.431Z,8.63
2019-04-06T10:47:45.464Z,8.37
2019-04-06T10:54:35.067Z,8.50
2019-04-06T10:57:46.676Z,8.70
2019-04-06T11:01:03.861Z,7.83
2019-04-06T11:04:22.665Z,8.15
2019-04-06T11:07:32.935Z,7.90
2019-04-06T11:10:45.511Z,8.30
2019-04-06T11:14:04.777Z,7.83
2019-04-06T11:17:30.745Z,8.38
2019-04-06T11:20:49.496Z,8.08
2019-04-06T11:27:24.249Z,8.73
2019-04-06T11:30:49.323Z,9.10
2019-04-06T11:34:14.263Z,9.38
2019-04-06T11:37:32.758Z,8.63
2019-04-06T11:40:49.557Z,8.65
2019-04-06T11:43:58.595Z,8.88
2019-04-06T11:47:24.312Z,9.90
2019-04-06T11:50:31.496Z,9.77
2019-04-06T11:53:43.291Z,9.70
2019-04-06T11:56:54.389Z,9.43
2019-04-06T12:03:46.574Z,8.93
2019-04-06T12:07:11.404Z,8.98
2019-04-06T12:14:03.404Z,8.90
2019-04-06T12:17:30.357Z,9.13
2019-04-06T12:24:08.634Z,10.30
2019-04-06T12:27:17.503Z,8.65
2019-04-06T12:30:38.599Z,9.73
2019-04-06T12:34:02.756Z,9.20
2019-04-06T12:37:30.547Z,8.93
2019-04-06T12:40:41.813Z,9.27
2019-04-06T12:43:55.207Z,9.80
2019-04-06T12:47:18.210Z,7.67
2019-04-06T12:50:27.891Z,8.47
2019-04-06T12:53:36.776Z,10.13
2019-04-06T12:57:02.032Z,9.20
2019-04-06T13:00:17.823Z,10.03
2019-04-06T13:03:32.639Z,9.63
2019-04-06T13:06:40.476Z,9.60
2019-04-06T13:10:03.736Z,10.63
2019-04-06T13:13:13.602Z,10.27
2019-04-06T13:16:26.623Z,9.90
2019-04-06T13:19:39.620Z,10.67
2019-04-06T13:23:03.743Z,9.90
2019-04-06T13:26:28.627Z,9.77
2019-04-06T13:29:50.424Z,9.47
2019-04-06T13:33:11.952Z,8.63
2019-04-06T13:36:24.248Z,9.97
2019-04-06T13:39:42.266Z,10.20
2019-04-06T13:46:26.464Z,10.93
2019-04-06T13:49:38.540Z,10.70
2019-04-06T13:52:56.905Z,10.63
2019-04-06T13:56:18.290Z,10.97
2019-04-06T13:59:37.560Z,10.60
2019-04-06T14:02:58.600Z,10.77
2019-04-06T14:06:10.502Z,10.57
2019-04-06T14:09:33.454Z,10.77
2019-04-06T14:16:07.614Z,11.77
2019-04-06T14:19:28.627Z,10.43
2019-04-06T14:22:48.781Z,12.50
2019-04-06T14:26:03.261Z,11.70
2019-04-06T14:29:21.540Z,12.20
2019-04-06T14:32:43.256Z,11.93
2019-04-06T14:35:58.693Z,12.97
2019-04-06T14:39:19.706Z,12.87
2019-04-06T14:42:45.715Z,13.97
2019-04-06T14:45:55.493Z,14.17
2019-04-06T14:49:17.218Z,16.30
2019-04-06T14:52:20.738Z,16.13
2019-04-06T14:58:47.613Z,14.83
2019-04-06T15:02:09.597Z,15.03
2019-04-06T15:08:44.403Z,13.97
2019-04-06T15:12:12.714Z,14.83
2019-04-06T15:15:33.427Z,13.67
2019-04-06T15:22:12.628Z,10.63
2019-04-06T15:25:23.531Z,14.73
2019-04-06T15:28:43.266Z,18.13
2019-04-06T15:31:55.298Z,15.27
2019-04-06T15:35:05.021Z,13.43
2019-04-06T15:38:21.471Z,13.93
2019-04-06T15:41:31.473Z,12.63
2019-04-06T15:48:00.515Z,12.00
2019-04-06T15:51:15.583Z,10.73
2019-04-06T15:54:37.025Z,12.60
2019-04-06T15:57:49.048Z,12.53
2019-04-06T16:01:11.799Z,13.73
2019-04-06T16:04:20.987Z,14.50
2019-04-06T16:07:44.963Z,11.97
2019-04-06T16:14:20.286Z,13.13
2019-04-06T16:17:31.463Z,12.53
2019-04-06T16:20:58.441Z,12.97
2019-04-06T16:27:24.327Z,13.43
2019-04-06T16:33:42.312Z,16.17
2019-04-06T16:37:04.645Z,16.03
2019-04-06T16:40:16.431Z,17.43
2019-04-06T16:43:23.934Z,17.83
2019-04-06T16:46:39.958Z,17.53
2019-04-06T16:50:07.646Z,18.53
2019-04-06T16:53:33.309Z,18.83
2019-04-06T16:56:44.144Z,18.20
2019-04-06T16:59:53.413Z,19.33
2019-04-06T17:03:18.900Z,20.07
2019-04-06T17:06:32.534Z,20.97
2019-04-06T17:09:59.626Z,21.27
2019-04-06T17:13:17.764Z,19.40
2019-04-06T17:16:34.039Z,19.90
2019-04-06T17:22:57.869Z,21.13
2019-04-06T17:26:25.617Z,22.80
2019-04-06T17:29:42.278Z,21.90
2019-04-06T17:32:52.619Z,19.17
2019-04-06T17:36:17.847Z,18.67
2019-04-06T17:39:43.570Z,15.97
2019-04-06T17:43:00.829Z,16.37
2019-04-06T17:46:10.427Z,14.57
2019-04-06T17:49:24.705Z,14.73
2019-04-06T17:52:34.856Z,13.80
2019-04-06T17:56:00.495Z,14.13
2019-04-06T17:59:17.604Z,15.77
2019-04-06T18:02:49.221Z,15.50
2019-04-06T18:06:04.543Z,16.37
2019-04-06T18:09:13.454Z,15.13
2019-04-06T18:12:30.519Z,17.63
2019-04-06T18:15:38.382Z,15.87
2019-04-06T18:21:53.877Z,24.83
2019-04-06T18:25:02.396Z,22.77
2019-04-06T18:28:10.616Z,22.70
2019-04-06T18:31:19.145Z,29.87
2019-04-06T18:34:26.723Z,21.40
2019-04-06T18:37:40.141Z,27.93
2019-04-06T18:40:48.311Z,22.77
2019-04-06T18:47:02.350Z,21.60
2019-04-06T18:50:10.729Z,24.10
2019-04-06T18:53:18.205Z,31.97
2019-04-06T18:59:32.711Z,24.57
2019-04-06T19:02:40.725Z,21.57
2019-04-06T19:05:50.052Z,22.57
2019-04-06T19:08:58.790Z,20.80
2019-04-06T19:12:09.017Z,20.53
2019-04-06T19:15:22.906Z,20.50
2019-04-06T19:18:33.518Z,19.40
2019-04-06T19:21:49.008Z,21.40
2019-04-06T19:24:57.694Z,21.40
2019-04-06T19:28:06.931Z,20.87
2019-04-06T19:31:15.125Z,21.83
2019-04-06T19:34:23.910Z,20.53
2019-04-06T19:37:33.690Z,21.27
2019-04-06T19:40:41.909Z,21.17
2019-04-06T19:43:49.187Z,20.37
2019-04-06T19:46:56.288Z,20.67
2019-04-06T19:50:03.771Z,20.73
2019-04-06T19:53:11.472Z,18.73
2019-04-06T19:59:25.378Z,20.60
2019-04-06T20:02:33.740Z,22.40
2019-04-06T20:05:41.500Z,21.00
2019-04-06T20:08:50.261Z,20.07
2019-04-06T20:12:06.110Z,21.77
2019-04-06T20:15:10.261Z,20.83
2019-04-06T20:18:18.010Z,22.17
2019-04-06T20:21:25.764Z,20.80
2019-04-06T20:24:32.983Z,21.70
2019-04-06T20:27:40.930Z,20.50
2019-04-06T20:30:48.762Z,21.00
2019-04-06T20:33:55.924Z,20.40
2019-04-06T20:37:05.345Z,21.17
2019-04-06T20:40:13.257Z,22.20
2019-04-06T20:43:21.319Z,21.67
2019-04-06T20:46:29.782Z,25.60
2019-04-06T20:49:37.384Z,24.20
2019-04-06T20:52:45.997Z,22.63
2019-04-06T20:55:53.485Z,21.27
2019-04-06T20:59:01.472Z,20.70
2019-04-06T21:02:09.577Z,21.30
2019-04-06T21:05:17.355Z,23.70
2019-04-06T21:11:32.306Z,22.33
2019-04-06T21:14:39.762Z,20.73
2019-04-06T21:17:48.177Z,20.93
2019-04-06T21:20:56.472Z,19.87
2019-04-06T21:24:04.692Z,19.80
2019-04-06T21:27:14.279Z,19.53
2019-04-06T21:30:24.521Z,18.80
2019-04-06T21:33:32.322Z,19.67
2019-04-06T21:36:39.698Z,21.03
2019-04-06T21:39:48.302Z,20.10
2019-04-06T21:42:56.688Z,20.20
2019-04-06T21:46:04.256Z,19.37
2019-04-06T21:49:12.256Z,18.63
2019-04-06T21:52:20.330Z,19.83
2019-04-06T21:55:28.627Z,17.80
2019-04-06T21:58:36.266Z,19.33
2019-04-06T22:01:44.961Z,18.93
2019-04-06T22:04:52.123Z,21.33
2019-04-06T22:07:59.352Z,20.90
2019-04-06T22:14:14.855Z,20.33
2019-04-06T22:17:23.238Z,19.20
2019-04-06T22:23:43.247Z,19.87
2019-04-06T22:26:47.980Z,19.37
2019-04-06T22:29:55.535Z,19.23
2019-04-06T22:33:03.287Z,19.87
2019-04-06T22:36:10.634Z,18.63
2019-04-06T22:39:18.133Z,18.87
2019-04-06T22:42:26.085Z,19.30
2019-04-06T22:45:34.714Z,19.60
2019-04-06T22:48:43.805Z,19.60
2019-04-06T22:51:52.804Z,18.97
2019-04-06T22:55:00.691Z,17.93
2019-04-06T22:58:08.535Z,18.40
2019-04-06T23:01:18.590Z,18.77
2019-04-06T23:04:32.087Z,17.83
2019-04-06T23:07:39.480Z,18.17
2019-04-06T23:10:47.589Z,19.50
2019-04-06T23:13:55.328Z,18.40
2019-04-06T23:17:02.384Z,17.97
2019-04-06T23:20:11.302Z,19.47
2019-04-06T23:23:18.727Z,17.40
2019-04-06T23:26:26.158Z,19.10
2019-04-06T23:29:33.708Z,18.13
2019-04-06T23:32:41.115Z,18.93
2019-04-06T23:35:48.723Z,18.77
2019-04-06T23:38:56.349Z,17.43
2019-04-06T23:42:04.632Z,18.30
2019-04-06T23:45:12.871Z,16.60
2019-04-06T23:48:20.547Z,17.03
2019-04-06T23:51:27.559Z,16.80
2019-04-06T23:54:34.782Z,17.63
2019-04-06T23:57:42.923Z,17.90
